createdAt,value
2019-03-21T00:01:06.840Z,98119.36
2019-03-21T00:03:36.091Z,98118.36
2019-03-21T00:06:05.518Z,98108.67
2019-03-21T00:08:33.424Z,98108.88
2019-03-21T00:11:38.156Z,98108.88
2019-03-21T00:14:16.676Z,98107.62
2019-03-21T00:16:44.444Z,98105.96
2019-03-21T00:19:12.501Z,98104.13
2019-03-21T00:21:40.669Z,98111.02
2019-03-21T00:24:08.818Z,98104.88
2019-03-21T00:26:37.071Z,98104.97
2019-03-21T00:29:06.003Z,98108.20
2019-03-21T00:31:34.696Z,98100.26
2019-03-21T00:34:03.742Z,98098.64
2019-03-21T00:36:31.762Z,98098.64
2019-03-21T00:39:00.534Z,98092.03
2019-03-21T00:41:28.668Z,98100.82
2019-03-21T00:44:00.551Z,98098.75
2019-03-21T00:46:29.575Z,98097.09
2019-03-21T00:48:59.189Z,98096.66
2019-03-21T00:51:27.559Z,98095.98
2019-03-21T00:53:56.980Z,98093.80
2019-03-21T00:56:26.002Z,98090.22
2019-03-21T00:58:55.688Z,98092.63
2019-03-21T01:01:23.933Z,98093.68
2019-03-21T01:03:54.093Z,98094.97
2019-03-21T01:06:22.277Z,98090.70
2019-03-21T01:08:52.431Z,98093.56
2019-03-21T01:11:20.849Z,98095.41
2019-03-21T01:13:49.768Z,98094.11
2019-03-21T01:16:18.017Z,98087.11
2019-03-21T01:18:46.182Z,98091.87
2019-03-21T01:21:15.379Z,98088.77
2019-03-21T01:23:43.564Z,98087.62
2019-03-21T01:26:11.707Z,98090.42
2019-03-21T01:28:40.147Z,98091.38
2019-03-21T01:31:08.470Z,98088.84
2019-03-21T01:33:36.558Z,98085.55
2019-03-21T01:36:05.514Z,98078.77
2019-03-21T01:38:33.720Z,98075.84
2019-03-21T01:41:02.019Z,98070.34
2019-03-21T01:43:30.190Z,98065.11
2019-03-21T01:45:59.267Z,98066.06
2019-03-21T01:48:28.358Z,98067.09
2019-03-21T01:50:56.820Z,98071.37
2019-03-21T01:53:25.905Z,98072.69
2019-03-21T01:55:53.735Z,98072.14
2019-03-21T01:58:22.199Z,98065.21
2019-03-21T02:00:50.649Z,98066.45
2019-03-21T02:03:19.419Z,98063.88
2019-03-21T02:05:47.505Z,98058.30
2019-03-21T02:08:15.592Z,98065.85
2019-03-21T02:10:45.478Z,98063.39
2019-03-21T02:13:13.989Z,98064.80
2019-03-21T02:15:42.767Z,98062.60
2019-03-21T02:18:10.594Z,98064.59
2019-03-21T02:20:38.892Z,98064.59
2019-03-21T02:23:08.639Z,98061.78
2019-03-21T02:25:38.105Z,98066.98
2019-03-21T02:28:06.337Z,98065.19
2019-03-21T02:30:35.630Z,98065.09
2019-03-21T02:33:10.477Z,98063.08
2019-03-21T02:35:38.299Z,98066.61
2019-03-21T02:38:06.388Z,98068.33
2019-03-21T02:40:34.856Z,98068.42
2019-03-21T02:43:04.041Z,98063.97
2019-03-21T02:45:31.860Z,98057.73
2019-03-21T02:48:00.279Z,98060.50
2019-03-21T02:50:32.800Z,98063.42
2019-03-21T02:53:24.783Z,98061.22
2019-03-21T02:55:54.662Z,98059.32
2019-03-21T02:58:22.887Z,98058.75
2019-03-21T03:00:50.992Z,98056.95
2019-03-21T03:03:19.435Z,98060.09
2019-03-21T03:05:48.028Z,98061.62
2019-03-21T03:08:16.185Z,98058.15
2019-03-21T03:10:46.747Z,98056.02
2019-03-21T03:13:15.525Z,98059.36
2019-03-21T03:15:43.952Z,98057.63
2019-03-21T03:18:12.691Z,98058.15
2019-03-21T03:20:40.859Z,98053.45
2019-03-21T03:23:09.420Z,98049.84
2019-03-21T03:25:37.952Z,98051.22
2019-03-21T03:28:09.122Z,98055.10
2019-03-21T03:30:38.214Z,98064.61
2019-03-21T03:33:06.695Z,98059.64
2019-03-21T03:35:34.938Z,98055.41
2019-03-21T03:38:03.049Z,98057.83
2019-03-21T03:40:34.120Z,98059.05
2019-03-21T03:43:02.932Z,98064.23
2019-03-21T03:45:37.716Z,98056.50
2019-03-21T03:48:02.193Z,98060.86
2019-03-21T03:50:30.677Z,98059.62
2019-03-21T03:53:02.534Z,98062.11
2019-03-21T03:55:31.364Z,98060.03
2019-03-21T03:58:00.133Z,98057.33
2019-03-21T04:00:29.165Z,98056.52
2019-03-21T04:02:58.370Z,98057.84
2019-03-21T04:05:26.562Z,98054.09
2019-03-21T04:07:55.417Z,98058.17
2019-03-21T04:10:29.013Z,98058.17
2019-03-21T04:12:57.852Z,98055.00
2019-03-21T04:15:28.105Z,98056.01
2019-03-21T04:17:56.632Z,98062.12
2019-03-21T04:20:26.851Z,98060.41
2019-03-21T04:22:56.892Z,98062.63
2019-03-21T04:25:31.125Z,98061.31
2019-03-21T04:27:59.798Z,98061.42
2019-03-21T04:30:28.577Z,98055.45
2019-03-21T04:32:56.909Z,98042.98
2019-03-21T04:35:25.389Z,98038.27
2019-03-21T04:37:54.270Z,98029.58
2019-03-21T04:40:22.890Z,98034.37
2019-03-21T04:42:51.402Z,98031.53
2019-03-21T04:45:20.285Z,98024.31
2019-03-21T04:47:48.670Z,98029.03
2019-03-21T04:50:19.303Z,98022.95
2019-03-21T04:52:47.059Z,98012.55
2019-03-21T04:55:15.760Z,98006.95
2019-03-21T04:57:44.336Z,98006.98
2019-03-21T05:00:24.196Z,97996.95
2019-03-21T05:02:53.586Z,97997.86
2019-03-21T05:05:21.716Z,97989.92
2019-03-21T05:07:50.267Z,97990.94
2019-03-21T05:10:19.587Z,97992.94
2019-03-21T05:12:48.120Z,97983.38
2019-03-21T05:15:19.302Z,97977.89
2019-03-21T05:17:47.933Z,97975.54
2019-03-21T05:20:19.609Z,97974.22
2019-03-21T05:22:49.602Z,97975.10
2019-03-21T05:25:18.493Z,97980.75
2019-03-21T05:27:46.318Z,97985.38
2019-03-21T05:30:20.688Z,97986.36
2019-03-21T05:32:49.215Z,97990.50
2019-03-21T05:35:18.608Z,97992.86
2019-03-21T05:37:46.743Z,97997.39
2019-03-21T05:40:15.440Z,98010.53
2019-03-21T05:42:47.759Z,98010.82
2019-03-21T05:45:16.226Z,98017.09
2019-03-21T05:47:45.584Z,98005.05
2019-03-21T05:50:15.131Z,98016.25
2019-03-21T05:52:43.846Z,98009.20
2019-03-21T05:55:13.029Z,98017.19
2019-03-21T05:57:41.941Z,98024.45
2019-03-21T06:00:16.718Z,98023.75
2019-03-21T06:02:44.807Z,98031.23
2019-03-21T06:05:13.989Z,98036.97
2019-03-21T06:08:06.814Z,98036.45
2019-03-21T06:10:38.297Z,98030.00
2019-03-21T06:13:06.692Z,98030.36
2019-03-21T06:15:36.611Z,98031.66
2019-03-21T06:18:13.144Z,98029.00
2019-03-21T06:20:56.306Z,98028.56
2019-03-21T06:23:59.958Z,98027.69
2019-03-21T06:27:15.148Z,98026.70
2019-03-21T06:29:43.826Z,98038.50
2019-03-21T06:32:13.235Z,98029.00
2019-03-21T06:34:41.578Z,98038.27
2019-03-21T06:37:09.666Z,98028.91
2019-03-21T06:39:38.625Z,98030.83
2019-03-21T06:42:07.284Z,98030.83
2019-03-21T06:44:36.013Z,98037.92
2019-03-21T06:47:04.498Z,98025.79
2019-03-21T06:49:32.969Z,98037.39
2019-03-21T06:52:02.684Z,98037.39
2019-03-21T06:54:31.625Z,98043.79
2019-03-21T06:57:02.520Z,98043.50
2019-03-21T06:59:29.736Z,98047.98
2019-03-21T07:01:58.432Z,98047.25
2019-03-21T07:04:27.403Z,98047.25
2019-03-21T07:06:55.553Z,98044.54
2019-03-21T07:09:23.891Z,98046.74
2019-03-21T07:11:53.351Z,98046.94
2019-03-21T07:14:21.514Z,98043.44
2019-03-21T07:17:00.059Z,98045.59
2019-03-21T07:19:20.454Z,98052.39
2019-03-21T07:21:48.783Z,98049.72
2019-03-21T07:24:17.214Z,98054.53
2019-03-21T07:26:45.650Z,98055.72
2019-03-21T07:29:14.085Z,98050.75
2019-03-21T07:31:43.098Z,98054.41
2019-03-21T07:34:14.055Z,98052.02
2019-03-21T07:36:42.931Z,98049.41
2019-03-21T07:39:11.331Z,98049.37
2019-03-21T07:41:40.586Z,98051.90
2019-03-21T07:44:09.018Z,98053.02
2019-03-21T07:46:37.459Z,98051.75
2019-03-21T07:49:06.657Z,98049.64
2019-03-21T07:51:34.968Z,98051.95
2019-03-21T07:54:04.983Z,98055.92
2019-03-21T07:56:33.564Z,98052.45
2019-03-21T07:59:02.355Z,98055.32
2019-03-21T08:01:31.181Z,98052.27
2019-03-21T08:04:02.733Z,98047.20
2019-03-21T08:06:30.284Z,98044.64
2019-03-21T08:08:59.141Z,98047.91
2019-03-21T08:11:27.490Z,98049.86
2019-03-21T08:13:56.138Z,98046.55
2019-03-21T08:16:24.780Z,98050.92
2019-03-21T08:18:52.571Z,98058.78
2019-03-21T08:21:21.240Z,98051.81
2019-03-21T08:23:50.126Z,98059.20
2019-03-21T08:26:18.487Z,98055.09
2019-03-21T08:28:47.135Z,98043.92
2019-03-21T08:31:23.694Z,98046.09
2019-03-21T08:33:52.146Z,98057.77
2019-03-21T08:36:20.595Z,98054.45
2019-03-21T08:38:49.082Z,98055.56
2019-03-21T08:41:18.018Z,98055.37
2019-03-21T08:43:46.909Z,98053.19
2019-03-21T08:46:17.318Z,98056.31
2019-03-21T08:48:45.868Z,98054.62
2019-03-21T08:51:14.172Z,98041.66
2019-03-21T08:53:43.058Z,98047.20
2019-03-21T08:56:11.473Z,98043.93
2019-03-21T08:58:39.905Z,98037.92
2019-03-21T09:01:08.352Z,98034.98
2019-03-21T09:03:36.745Z,98035.77
2019-03-21T09:06:05.882Z,98036.84
2019-03-21T09:08:34.870Z,98038.78
2019-03-21T09:11:03.845Z,98040.45
2019-03-21T09:13:32.677Z,98038.52
2019-03-21T09:16:01.635Z,98045.30
2019-03-21T09:18:30.493Z,98039.48
2019-03-21T09:20:59.038Z,98048.06
2019-03-21T09:23:27.389Z,98037.12
2019-03-21T09:25:56.298Z,98036.86
2019-03-21T09:28:24.655Z,98035.37
2019-03-21T09:30:56.431Z,98029.39
2019-03-21T09:33:24.786Z,98026.41
2019-03-21T09:35:52.521Z,98026.98
2019-03-21T09:38:21.230Z,98013.80
2019-03-21T09:40:52.109Z,98023.73
2019-03-21T09:43:21.833Z,98013.53
2019-03-21T09:45:50.591Z,98010.09
2019-03-21T09:48:19.343Z,98011.44
2019-03-21T09:50:47.544Z,98003.73
2019-03-21T09:53:16.655Z,98000.11
2019-03-21T09:55:44.827Z,98012.77
2019-03-21T09:58:13.189Z,98001.31
2019-03-21T10:00:41.181Z,98014.39
2019-03-21T10:03:09.021Z,98012.84
2019-03-21T10:05:37.427Z,98004.72
2019-03-21T10:08:06.340Z,98015.09
2019-03-21T10:10:34.992Z,98007.11
2019-03-21T10:13:04.335Z,98003.09
2019-03-21T10:15:33.159Z,98023.31
2019-03-21T10:18:03.028Z,98006.84
2019-03-21T10:20:31.567Z,98005.24
2019-03-21T10:23:02.170Z,98006.54
2019-03-21T10:25:30.756Z,97995.38
2019-03-21T10:28:00.060Z,98000.24
2019-03-21T10:30:46.775Z,98002.70
2019-03-21T10:33:15.353Z,97992.41
2019-03-21T10:35:43.841Z,98000.59
2019-03-21T10:38:11.980Z,97991.51
2019-03-21T10:40:41.441Z,97989.34
2019-03-21T10:43:10.671Z,97991.69
2019-03-21T10:45:39.914Z,97985.66
2019-03-21T10:48:08.109Z,97979.10
2019-03-21T10:50:38.126Z,97982.77
2019-03-21T10:53:06.902Z,97980.53
2019-03-21T10:55:36.516Z,97977.91
2019-03-21T10:58:05.805Z,97979.80
2019-03-21T11:00:33.585Z,97972.09
2019-03-21T11:03:01.910Z,97973.13
2019-03-21T11:05:31.310Z,97972.23
2019-03-21T11:08:01.349Z,97967.52
2019-03-21T11:10:29.842Z,97960.94
2019-03-21T11:12:58.293Z,97961.57
2019-03-21T11:15:26.922Z,97959.23
2019-03-21T11:17:55.348Z,97947.73
2019-03-21T11:20:33.707Z,97948.48
2019-03-21T11:23:02.855Z,97953.72
2019-03-21T11:25:31.826Z,97949.19
2019-03-21T11:28:02.268Z,97933.55
2019-03-21T11:30:35.720Z,97946.27
2019-03-21T11:33:04.459Z,97937.17
2019-03-21T11:35:33.013Z,97929.36
2019-03-21T11:38:01.653Z,97930.09
2019-03-21T11:40:30.451Z,97933.78
2019-03-21T11:42:59.146Z,97929.78
2019-03-21T11:45:27.896Z,97926.22
2019-03-21T11:47:56.286Z,97927.50
2019-03-21T11:50:24.905Z,97912.43
2019-03-21T11:52:52.932Z,97920.68
2019-03-21T11:55:21.065Z,97910.80
2019-03-21T11:57:51.306Z,97908.36
2019-03-21T12:00:19.734Z,97903.95
2019-03-21T12:02:47.931Z,97901.00
2019-03-21T12:05:16.339Z,97893.66
2019-03-21T12:07:47.286Z,97896.13
2019-03-21T12:10:17.108Z,97890.91
2019-03-21T12:12:45.375Z,97876.58
2019-03-21T12:15:14.797Z,97880.71
2019-03-21T12:17:43.707Z,97878.42
2019-03-21T12:20:11.981Z,97867.42
2019-03-21T12:22:40.599Z,97868.30
2019-03-21T12:25:08.574Z,97869.16
2019-03-21T12:27:37.629Z,97864.78
2019-03-21T12:32:57.134Z,97853.67
2019-03-21T12:35:27.837Z,97851.18
2019-03-21T12:37:55.172Z,97843.30
2019-03-21T12:40:23.241Z,97844.48
2019-03-21T12:42:52.041Z,97840.17
2019-03-21T12:45:22.851Z,97833.88
2019-03-21T12:47:51.494Z,97834.38
2019-03-21T12:50:20.740Z,97833.53
2019-03-21T12:52:48.661Z,97828.19
2019-03-21T12:55:17.192Z,97822.70
2019-03-21T12:57:45.349Z,97821.66
2019-03-21T13:00:13.436Z,97817.97
2019-03-21T13:02:43.177Z,97811.17
2019-03-21T13:05:16.263Z,97811.73
2019-03-21T13:07:45.158Z,97810.60
2019-03-21T13:10:13.956Z,97808.20
2019-03-21T13:12:42.569Z,97802.95
2019-03-21T13:15:10.873Z,97808.13
2019-03-21T13:17:38.957Z,97801.62
2019-03-21T13:20:07.430Z,97792.03
2019-03-21T13:22:35.915Z,97799.01
2019-03-21T13:25:03.805Z,97801.30
2019-03-21T13:27:33.612Z,97800.47
2019-03-21T13:30:03.622Z,97795.08
2019-03-21T13:32:32.128Z,97788.94
2019-03-21T13:35:01.184Z,97788.21
2019-03-21T13:37:32.282Z,97792.88
2019-03-21T13:40:00.502Z,97787.02
2019-03-21T13:42:31.387Z,97778.25
2019-03-21T13:44:59.622Z,97777.03
2019-03-21T13:47:28.360Z,97779.80
2019-03-21T13:49:57.214Z,97766.34
2019-03-21T13:52:25.043Z,97766.52
2019-03-21T13:54:56.050Z,97764.39
2019-03-21T13:57:24.803Z,97756.95
2019-03-21T13:59:52.846Z,97765.25
2019-03-21T14:02:21.511Z,97767.19
2019-03-21T14:04:49.615Z,97758.52
2019-03-21T14:07:18.523Z,97758.86
2019-03-21T14:09:47.467Z,97760.95
2019-03-21T14:12:16.316Z,97761.05
2019-03-21T14:14:47.106Z,97755.97
2019-03-21T14:17:21.986Z,97758.38
2019-03-21T14:19:45.727Z,97748.11
2019-03-21T14:22:15.866Z,97753.19
2019-03-21T14:24:44.010Z,97750.65
2019-03-21T14:27:12.763Z,97750.89
2019-03-21T14:29:42.012Z,97741.77
2019-03-21T14:32:10.180Z,97740.70
2019-03-21T14:34:38.650Z,97737.17
2019-03-21T14:37:06.863Z,97750.95
2019-03-21T14:39:35.198Z,97741.14
2019-03-21T14:42:02.987Z,97743.34
2019-03-21T14:44:31.814Z,97752.63
2019-03-21T14:46:59.949Z,97735.05
2019-03-21T14:49:28.490Z,97738.54
2019-03-21T14:51:57.501Z,97735.56
2019-03-21T14:54:25.463Z,97738.88
2019-03-21T14:56:53.577Z,97740.20
2019-03-21T14:59:21.413Z,97736.73
2019-03-21T15:01:49.540Z,97726.48
2019-03-21T15:04:17.312Z,97726.04
2019-03-21T15:06:46.252Z,97727.58
2019-03-21T15:09:14.397Z,97725.41
2019-03-21T15:11:42.625Z,97728.75
2019-03-21T15:14:10.785Z,97736.17
2019-03-21T15:16:39.960Z,97744.48
2019-03-21T15:19:08.362Z,97744.09
2019-03-21T15:21:36.516Z,97735.46
2019-03-21T15:24:04.785Z,97740.64
2019-03-21T15:26:33.260Z,97737.27
2019-03-21T15:29:01.348Z,97737.05
2019-03-21T15:31:29.227Z,97739.08
2019-03-21T15:33:58.553Z,97741.23
2019-03-21T15:36:26.912Z,97739.91
2019-03-21T15:38:54.978Z,97735.08
2019-03-21T15:41:23.215Z,97734.14
2019-03-21T15:43:53.133Z,97731.49
2019-03-21T15:46:21.369Z,97729.17
2019-03-21T15:48:49.481Z,97734.16
2019-03-21T15:51:18.251Z,97736.91
2019-03-21T15:53:54.674Z,97738.72
2019-03-21T15:56:16.762Z,97732.23
2019-03-21T15:58:45.899Z,97737.37
2019-03-21T16:03:46.576Z,97736.40
2019-03-21T16:06:15.346Z,97741.08
2019-03-21T16:08:44.014Z,97734.97
2019-03-21T16:11:13.437Z,97731.47
2019-03-21T16:13:42.757Z,97730.52
2019-03-21T16:16:10.692Z,97729.91
2019-03-21T16:18:39.147Z,97732.31
2019-03-21T16:21:08.147Z,97735.44
2019-03-21T16:23:36.540Z,97732.05
2019-03-21T16:26:04.968Z,97735.53
2019-03-21T16:28:33.718Z,97734.55
2019-03-21T16:31:02.232Z,97735.75
2019-03-21T16:33:31.010Z,97738.02
2019-03-21T16:36:02.927Z,97734.16
2019-03-21T16:38:32.323Z,97735.81
2019-03-21T16:41:03.801Z,97735.17
2019-03-21T16:43:32.976Z,97736.19
2019-03-21T16:46:03.383Z,97733.39
2019-03-21T16:48:31.439Z,97735.98
2019-03-21T16:50:59.642Z,97732.47
2019-03-21T16:53:28.472Z,97730.41
2019-03-21T16:55:56.983Z,97734.37
2019-03-21T16:58:25.189Z,97738.45
2019-03-21T17:00:53.377Z,97743.47
2019-03-21T17:03:22.203Z,97739.94
2019-03-21T17:05:51.532Z,97741.11
2019-03-21T17:08:20.439Z,97746.41
2019-03-21T17:10:49.039Z,97742.16
2019-03-21T17:13:18.232Z,97744.33
2019-03-21T17:15:46.364Z,97744.47
2019-03-21T17:18:14.447Z,97741.75
2019-03-21T17:20:43.291Z,97743.30
2019-03-21T17:23:11.692Z,97743.63
2019-03-21T17:25:41.214Z,97751.78
2019-03-21T17:28:09.521Z,97754.14
2019-03-21T17:30:38.106Z,97762.45
2019-03-21T17:33:06.184Z,97763.62
2019-03-21T17:35:34.235Z,97764.12
2019-03-21T17:38:02.630Z,97766.75
2019-03-21T17:40:31.915Z,97770.52
2019-03-21T17:43:00.247Z,97765.47
2019-03-21T17:45:29.313Z,97774.10
2019-03-21T17:47:57.903Z,97770.06
2019-03-21T17:50:26.077Z,97768.83
2019-03-21T17:52:54.683Z,97771.73
2019-03-21T17:55:23.066Z,97767.79
2019-03-21T17:57:51.826Z,97767.77
2019-03-21T18:00:21.799Z,97769.05
2019-03-21T18:02:49.928Z,97774.95
2019-03-21T18:05:18.962Z,97771.50
2019-03-21T18:07:47.019Z,97772.20
2019-03-21T18:10:26.167Z,97769.53
2019-03-21T18:12:54.631Z,97781.12
2019-03-21T18:15:23.807Z,97788.44
2019-03-21T18:17:51.961Z,97795.14
2019-03-21T18:20:19.920Z,97791.50
2019-03-21T18:22:48.348Z,97793.80
2019-03-21T18:25:16.784Z,97798.87
2019-03-21T18:27:45.736Z,97794.45
2019-03-21T18:30:14.551Z,97799.97
2019-03-21T18:32:46.299Z,97800.20
2019-03-21T18:35:15.445Z,97798.69
2019-03-21T18:37:44.265Z,97800.99
2019-03-21T18:40:12.656Z,97798.33
2019-03-21T18:42:42.367Z,97806.69
2019-03-21T18:45:15.016Z,97810.98
2019-03-21T18:47:44.619Z,97808.69
2019-03-21T18:50:14.358Z,97805.08
2019-03-21T18:52:42.575Z,97806.69
2019-03-21T18:55:12.832Z,97807.43
2019-03-21T18:57:41.949Z,97808.07
2019-03-21T19:00:11.873Z,97807.58
2019-03-21T19:02:40.719Z,97799.22
2019-03-21T19:05:09.060Z,97800.70
2019-03-21T19:07:39.603Z,97800.78
2019-03-21T19:10:08.472Z,97802.09
2019-03-21T19:12:38.618Z,97801.52
2019-03-21T19:15:09.232Z,97806.17
2019-03-21T19:17:37.642Z,97803.59
2019-03-21T19:20:06.782Z,97792.73
2019-03-21T19:22:35.769Z,97797.98
2019-03-21T19:25:17.505Z,97798.75
2019-03-21T19:27:44.949Z,97799.05
2019-03-21T19:30:13.338Z,97791.13
2019-03-21T19:32:41.835Z,97796.52
2019-03-21T19:35:11.320Z,97793.03
2019-03-21T19:37:40.252Z,97796.59
2019-03-21T19:40:11.255Z,97797.20
2019-03-21T19:42:40.159Z,97796.33
2019-03-21T19:45:15.226Z,97788.47
2019-03-21T19:47:44.425Z,97791.19
2019-03-21T19:50:13.551Z,97791.31
2019-03-21T19:52:42.031Z,97788.63
2019-03-21T19:55:12.947Z,97786.53
2019-03-21T19:57:42.381Z,97790.98
2019-03-21T20:00:13.194Z,97787.26
2019-03-21T20:02:41.112Z,97787.52
2019-03-21T20:05:10.508Z,97788.83
2019-03-21T20:07:42.532Z,97808.73
2019-03-21T20:10:13.042Z,97807.80
2019-03-21T20:12:46.232Z,97807.75
2019-03-21T20:15:17.798Z,97802.80
2019-03-21T20:17:48.355Z,97804.75
2019-03-21T20:20:19.077Z,97807.68
2019-03-21T20:22:48.908Z,97806.84
2019-03-21T20:25:18.148Z,97797.14
2019-03-21T20:27:48.220Z,97798.77
2019-03-21T20:30:17.393Z,97798.08
2019-03-21T20:32:46.528Z,97797.83
2019-03-21T20:35:16.795Z,97789.99
2019-03-21T20:37:45.610Z,97792.95
2019-03-21T20:40:13.893Z,97789.66
2019-03-21T20:42:42.474Z,97796.75
2019-03-21T20:45:12.015Z,97788.13
2019-03-21T20:47:40.132Z,97787.28
2019-03-21T20:50:10.643Z,97784.15
2019-03-21T20:52:39.443Z,97789.28
2019-03-21T20:55:09.335Z,97792.38
2019-03-21T20:57:38.374Z,97794.06
2019-03-21T21:00:26.582Z,97792.44
2019-03-21T21:02:55.172Z,97793.31
2019-03-21T21:05:23.740Z,97792.74
2019-03-21T21:07:52.031Z,97787.44
2019-03-21T21:10:20.058Z,97790.42
2019-03-21T21:12:48.475Z,97785.95
2019-03-21T21:15:17.839Z,97785.58
2019-03-21T21:17:48.936Z,97783.20
2019-03-21T21:20:18.024Z,97784.16
2019-03-21T21:22:46.237Z,97785.56
2019-03-21T21:25:14.689Z,97791.89
2019-03-21T21:27:49.861Z,97791.00
2019-03-21T21:30:16.083Z,97797.89
2019-03-21T21:32:45.410Z,97794.73
2019-03-21T21:35:14.276Z,97801.17
2019-03-21T21:37:43.463Z,97803.56
2019-03-21T21:40:12.308Z,97803.48
2019-03-21T21:42:42.246Z,97805.23
2019-03-21T21:45:11.314Z,97802.11
2019-03-21T21:47:40.011Z,97797.65
2019-03-21T21:50:09.322Z,97798.75
2019-03-21T21:52:42.232Z,97792.28
2019-03-21T21:55:10.909Z,97787.09
2019-03-21T21:57:39.115Z,97781.30
2019-03-21T22:00:08.327Z,97780.78
2019-03-21T22:02:36.825Z,97782.87
2019-03-21T22:05:06.585Z,97780.27
2019-03-21T22:07:35.631Z,97780.41
2019-03-21T22:10:04.569Z,97778.29
2019-03-21T22:12:34.390Z,97778.98
2019-03-21T22:15:03.782Z,97777.83
2019-03-21T22:17:31.578Z,97783.02
2019-03-21T22:20:00.546Z,97796.17
2019-03-21T22:22:29.018Z,97785.38
2019-03-21T22:24:56.822Z,97788.69
2019-03-21T22:27:25.558Z,97791.47
2019-03-21T22:29:53.981Z,97794.31
2019-03-21T22:32:23.882Z,97797.61
2019-03-21T22:34:53.602Z,97797.34
2019-03-21T22:37:21.705Z,97789.53
2019-03-21T22:39:51.629Z,97793.45
2019-03-21T22:42:19.715Z,97788.17
2019-03-21T22:44:48.854Z,97783.43
2019-03-21T22:47:16.650Z,97789.53
2019-03-21T22:49:45.322Z,97784.53
2019-03-21T22:52:14.049Z,97783.79
2019-03-21T22:54:42.583Z,97784.92
2019-03-21T22:57:11.296Z,97779.31
2019-03-21T22:59:40.273Z,97777.36
2019-03-21T23:02:08.752Z,97774.80
2019-03-21T23:04:37.111Z,97780.61
2019-03-21T23:07:05.710Z,97779.74
2019-03-21T23:09:34.163Z,97778.83
2019-03-21T23:12:02.701Z,97784.63
2019-03-21T23:14:31.563Z,97782.73
2019-03-21T23:17:00.640Z,97776.16
2019-03-21T23:19:28.731Z,97778.90
2019-03-21T23:21:57.450Z,97782.30
2019-03-21T23:24:26.301Z,97775.52
2019-03-21T23:26:54.702Z,97777.06
2019-03-21T23:29:24.452Z,97778.90
2019-03-21T23:31:52.864Z,97780.97
2019-03-21T23:34:21.469Z,97779.00
2019-03-21T23:36:49.768Z,97776.45
2019-03-21T23:39:18.724Z,97772.45
2019-03-21T23:41:47.604Z,97776.34
2019-03-21T23:44:15.365Z,97779.92
2019-03-21T23:46:44.284Z,97773.17
2019-03-21T23:49:13.336Z,97767.42
2019-03-21T23:51:42.687Z,97768.89
2019-03-21T23:54:11.461Z,97759.87
2019-03-21T23:56:40.327Z,97766.81
2019-03-21T23:59:10.177Z,97768.97
